createdAt,value
2018-08-28T00:00:14.920Z,17.40
2018-08-28T00:05:17.185Z,17.30
2018-08-28T00:10:19.321Z,17.20
2018-08-28T00:15:21.638Z,17.20
2018-08-28T00:20:24.882Z,17.20
2018-08-28T00:25:28.761Z,17.10
2018-08-28T00:30:30.918Z,17.00
2018-08-28T00:35:33.101Z,16.80
2018-08-28T00:40:35.336Z,16.70
2018-08-28T00:45:38.557Z,16.70
2018-08-28T00:50:41.890Z,16.60
2018-08-28T00:55:44.053Z,16.50
2018-08-28T01:00:46.217Z,16.40
2018-08-28T01:05:48.373Z,16.30
2018-08-28T01:10:52.432Z,16.30
2018-08-28T01:15:54.569Z,16.10
2018-08-28T01:20:56.732Z,16.00
2018-08-28T01:25:58.970Z,15.90
2018-08-28T01:31:01.875Z,15.80
2018-08-28T01:36:04.132Z,15.70
2018-08-28T01:41:06.273Z,15.70
2018-08-28T01:46:10.992Z,15.60
2018-08-28T01:51:14.934Z,15.50
2018-08-28T01:56:19.496Z,15.40
2018-08-28T02:01:23.080Z,15.30
2018-08-28T02:06:25.417Z,15.20
2018-08-28T02:11:27.599Z,15.10
2018-08-28T02:16:30.082Z,15.10
2018-08-28T02:21:32.239Z,15.00
2018-08-28T02:26:34.573Z,14.90
2018-08-28T02:31:36.745Z,14.80
2018-08-28T02:36:38.945Z,14.80
2018-08-28T02:41:41.989Z,14.70
2018-08-28T02:46:45.757Z,14.60
2018-08-28T02:51:49.962Z,14.50
2018-08-28T02:56:52.655Z,14.50
2018-08-28T03:01:56.941Z,14.40
2018-08-28T03:07:01.345Z,14.30
2018-08-28T03:12:05.866Z,14.20
2018-08-28T03:17:08.029Z,14.10
2018-08-28T03:22:10.360Z,14.00
2018-08-28T03:27:12.549Z,13.90
2018-08-28T03:32:15.256Z,13.90
2018-08-28T03:37:17.705Z,13.70
2018-08-28T03:42:19.986Z,13.60
2018-08-28T03:47:22.125Z,13.60
2018-08-28T03:52:24.265Z,13.50
2018-08-28T03:57:26.438Z,13.40
2018-08-28T04:02:29.244Z,13.40
2018-08-28T04:07:31.977Z,13.30
2018-08-28T04:12:36.873Z,13.20
2018-08-28T04:17:55.837Z,13.20
2018-08-28T04:23:00.495Z,13.20
2018-08-28T04:28:05.580Z,13.20
2018-08-28T04:33:11.234Z,13.10
2018-08-28T04:38:15.622Z,13.00
2018-08-28T04:43:20.299Z,13.00
2018-08-28T04:48:24.741Z,12.90
2018-08-28T04:53:27.140Z,12.90
2018-08-28T04:58:31.181Z,12.90
2018-08-28T05:03:33.326Z,13.00
2018-08-28T05:08:36.511Z,13.00
2018-08-28T05:13:40.026Z,13.00
2018-08-28T05:18:42.195Z,13.10
2018-08-28T05:23:45.597Z,13.30
2018-08-28T05:28:49.966Z,13.50
2018-08-28T05:33:52.736Z,13.60
2018-08-28T05:38:54.911Z,13.90
2018-08-28T05:43:57.725Z,14.10
2018-08-28T05:48:59.898Z,14.40
2018-08-28T05:54:02.070Z,14.70
2018-08-28T05:59:06.577Z,14.80
2018-08-28T06:04:10.858Z,15.20
2018-08-28T06:09:13.028Z,15.40
2018-08-28T06:14:15.237Z,15.90
2018-08-28T06:19:17.393Z,16.00
2018-08-28T06:24:19.789Z,16.30
2018-08-28T06:29:21.947Z,16.50
2018-08-28T06:34:24.098Z,16.90
2018-08-28T06:39:26.262Z,17.30
2018-08-28T06:44:32.051Z,17.50
2018-08-28T06:49:36.161Z,17.80
2018-08-28T06:54:38.272Z,18.20
2018-08-28T06:59:41.868Z,18.50
2018-08-28T07:04:44.077Z,18.90
2018-08-28T07:09:46.229Z,19.30
2018-08-28T07:14:48.381Z,19.70
2018-08-28T07:19:50.576Z,20.00
2018-08-28T07:24:53.800Z,20.20
2018-08-28T07:29:57.892Z,20.60
2018-08-28T07:35:00.910Z,20.80
2018-08-28T07:40:06.372Z,21.10
2018-08-28T07:45:09.412Z,21.30
2018-08-28T07:50:12.156Z,21.60
2018-08-28T07:55:16.613Z,21.70
2018-08-28T08:00:18.802Z,22.10
2018-08-28T08:05:20.962Z,22.60
2018-08-28T08:10:23.572Z,22.90
2018-08-28T08:15:25.678Z,23.20
2018-08-28T08:20:29.773Z,23.20
2018-08-28T08:25:33.038Z,23.10
2018-08-28T08:30:38.287Z,22.60
2018-08-28T08:35:41.570Z,23.70
2018-08-28T08:40:44.194Z,23.60
2018-08-28T08:45:46.605Z,22.90
2018-08-28T08:50:48.981Z,23.70
2018-08-28T08:55:51.155Z,24.70
2018-08-28T09:00:54.006Z,24.90
2018-08-28T09:05:56.239Z,25.20
2018-08-28T09:10:58.387Z,25.20
2018-08-28T09:16:00.549Z,25.10
2018-08-28T09:21:05.121Z,25.80
2018-08-28T09:26:07.531Z,26.10
2018-08-28T09:31:09.967Z,25.90
2018-08-28T09:36:14.552Z,26.40
2018-08-28T09:41:19.332Z,25.80
2018-08-28T09:46:23.386Z,26.60
2018-08-28T09:51:28.706Z,27.10
2018-08-28T09:56:35.495Z,26.60
2018-08-28T10:01:42.047Z,25.70
2018-08-28T10:06:44.302Z,25.80
2018-08-28T10:11:47.465Z,25.50
2018-08-28T10:16:49.620Z,25.50
2018-08-28T10:21:51.898Z,25.40
2018-08-28T10:26:54.062Z,24.90
2018-08-28T10:31:56.637Z,25.80
2018-08-28T10:37:00.438Z,25.30
2018-08-28T10:42:02.590Z,26.00
2018-08-28T10:47:05.156Z,25.90
2018-08-28T10:52:07.360Z,25.80
2018-08-28T10:57:10.122Z,25.30
2018-08-28T11:02:13.605Z,25.20
2018-08-28T11:07:16.054Z,24.90
2018-08-28T11:12:18.435Z,25.20
2018-08-28T11:17:20.581Z,25.20
2018-08-28T11:22:23.012Z,25.00
2018-08-28T11:27:26.201Z,25.30
2018-08-28T11:32:28.353Z,25.30
2018-08-28T11:37:30.537Z,24.90
2018-08-28T11:42:32.697Z,25.50
2018-08-28T11:47:35.007Z,25.40
2018-08-28T11:52:37.231Z,24.70
2018-08-28T11:57:39.541Z,24.80
2018-08-28T12:02:41.700Z,25.00
2018-08-28T12:07:44.146Z,24.70
2018-08-28T12:12:47.529Z,24.50
2018-08-28T12:17:51.281Z,24.50
2018-08-28T12:22:54.147Z,24.10
2018-08-28T12:27:56.338Z,24.70
2018-08-28T12:32:59.161Z,25.20
2018-08-28T12:38:01.442Z,25.30
2018-08-28T12:43:03.622Z,25.40
2018-08-28T12:48:05.799Z,25.30
2018-08-28T12:53:08.452Z,25.40
2018-08-28T12:58:10.701Z,25.30
2018-08-28T13:03:12.890Z,25.40
2018-08-28T13:08:17.106Z,25.50
2018-08-28T13:13:20.027Z,25.50
2018-08-28T13:18:22.934Z,25.60
2018-08-28T13:23:25.597Z,25.50
2018-08-28T13:28:28.076Z,25.40
2018-08-28T13:33:30.298Z,25.50
2018-08-28T13:38:32.502Z,25.50
2018-08-28T13:43:35.334Z,25.20
2018-08-28T13:48:37.730Z,25.40
2018-08-28T13:53:40.801Z,25.20
2018-08-28T13:58:44.398Z,25.20
2018-08-28T14:03:46.554Z,25.20
2018-08-28T14:08:48.718Z,25.30
2018-08-28T14:13:52.464Z,25.20
2018-08-28T14:18:56.151Z,25.20
2018-08-28T14:23:58.710Z,25.30
2018-08-28T14:29:00.929Z,25.40
2018-08-28T14:34:04.198Z,25.00
2018-08-28T14:39:07.981Z,25.10
2018-08-28T14:44:12.183Z,25.20
2018-08-28T14:49:15.490Z,25.10
2018-08-28T14:54:17.766Z,25.30
2018-08-28T14:59:19.909Z,25.40
2018-08-28T15:04:23.731Z,25.40
2018-08-28T15:09:25.988Z,25.30
2018-08-28T15:14:28.471Z,25.30
2018-08-28T15:19:30.630Z,25.10
2018-08-28T15:24:32.937Z,25.00
2018-08-28T15:29:35.073Z,25.10
2018-08-28T15:34:38.012Z,25.20
2018-08-28T15:39:43.873Z,25.20
2018-08-28T15:44:46.077Z,25.10
2018-08-28T15:49:48.401Z,25.00
2018-08-28T15:54:50.710Z,25.00
2018-08-28T15:59:53.334Z,25.00
2018-08-28T16:04:55.690Z,25.00
2018-08-28T16:09:58.141Z,25.10
2018-08-28T16:15:00.302Z,25.00
2018-08-28T16:20:02.493Z,24.90
2018-08-28T16:25:04.685Z,24.80
2018-08-28T16:30:06.875Z,24.70
2018-08-28T16:35:09.891Z,24.80
2018-08-28T16:40:12.487Z,24.80
2018-08-28T16:45:16.011Z,24.80
2018-08-28T16:50:18.924Z,24.60
2018-08-28T16:55:21.235Z,24.60
2018-08-28T17:00:23.430Z,24.60
2018-08-28T17:05:25.595Z,24.50
2018-08-28T17:10:28.581Z,24.30
2018-08-28T17:15:30.712Z,24.20
2018-08-28T17:20:33.733Z,24.00
2018-08-28T17:25:36.119Z,24.00
2018-08-28T17:30:38.277Z,23.90
2018-08-28T17:35:40.413Z,23.80
2018-08-28T17:40:42.659Z,23.70
2018-08-28T17:45:44.835Z,23.60
2018-08-28T17:50:47.822Z,23.50
2018-08-28T17:55:50.390Z,23.40
2018-08-28T18:00:53.449Z,23.30
2018-08-28T18:05:55.764Z,23.30
2018-08-28T18:10:58.371Z,23.10
2018-08-28T18:16:00.521Z,22.90
2018-08-28T18:21:02.860Z,22.70
2018-08-28T18:26:06.205Z,22.60
2018-08-28T18:31:09.397Z,22.20
2018-08-28T18:36:11.593Z,22.00
2018-08-28T18:41:13.819Z,21.90
2018-08-28T18:46:16.034Z,21.60
2018-08-28T18:51:18.308Z,21.40
2018-08-28T18:56:20.506Z,21.30
2018-08-28T19:01:23.401Z,21.10
2018-08-28T19:06:25.741Z,20.90
2018-08-28T19:11:27.934Z,20.90
2018-08-28T19:16:30.115Z,20.80
2018-08-28T19:21:32.287Z,20.70
2018-08-28T19:26:34.501Z,20.60
2018-08-28T19:31:36.940Z,20.50
2018-08-28T19:36:39.994Z,20.40
2018-08-28T19:41:43.255Z,20.40
2018-08-28T19:46:45.552Z,20.20
2018-08-28T19:51:47.857Z,20.10
2018-08-28T19:56:50.069Z,20.00
2018-08-28T20:01:52.396Z,19.70
2018-08-28T20:06:54.894Z,19.60
2018-08-28T20:11:57.170Z,19.60
2018-08-28T20:16:59.330Z,19.40
2018-08-28T20:22:02.475Z,19.30
2018-08-28T20:27:05.245Z,19.30
2018-08-28T20:32:08.548Z,19.20
2018-08-28T20:37:10.683Z,19.30
2018-08-28T20:42:12.800Z,19.00
2018-08-28T20:47:14.969Z,18.90
2018-08-28T20:52:19.347Z,18.80
2018-08-28T20:57:24.294Z,18.70
2018-08-28T21:02:29.599Z,18.50
2018-08-28T21:07:31.736Z,18.40
2018-08-28T21:12:33.892Z,18.30
2018-08-28T21:17:36.062Z,18.20
2018-08-28T21:22:38.252Z,18.10
2018-08-28T21:27:40.450Z,18.00
2018-08-28T21:32:44.481Z,17.80
2018-08-28T21:37:46.629Z,17.50
2018-08-28T21:42:48.781Z,17.60
2018-08-28T21:47:52.049Z,17.60
2018-08-28T21:52:54.206Z,17.60
2018-08-28T21:57:56.353Z,17.40
2018-08-28T22:02:58.501Z,17.30
2018-08-28T22:08:02.019Z,17.30
2018-08-28T22:13:04.261Z,17.30
2018-08-28T22:18:06.403Z,17.10
2018-08-28T22:23:08.526Z,17.00
2018-08-28T22:28:10.629Z,16.90
2018-08-28T22:33:12.761Z,16.80
2018-08-28T22:38:15.495Z,16.70
2018-08-28T22:43:23.025Z,16.50
2018-08-28T22:48:25.125Z,16.20
2018-08-28T22:53:27.450Z,16.30
2018-08-28T22:58:32.617Z,16.20
2018-08-28T23:03:35.136Z,16.20
2018-08-28T23:08:38.951Z,16.00
2018-08-28T23:13:44.101Z,16.00
2018-08-28T23:18:46.659Z,15.70
2018-08-28T23:23:49.597Z,15.60
2018-08-28T23:28:53.825Z,15.40
2018-08-28T23:33:57.806Z,15.20
2018-08-28T23:38:59.893Z,15.20
2018-08-28T23:44:02.169Z,15.40
2018-08-28T23:49:06.377Z,15.30
2018-08-28T23:54:08.922Z,15.40
2018-08-28T23:59:14.038Z,15.30
